createdAt,value
2019-04-23T00:00:54.802Z,0.00
2019-04-23T00:01:50.979Z,0.00
2019-04-23T00:02:48.893Z,0.00
2019-04-23T00:03:54.844Z,0.00
2019-04-23T00:04:51.237Z,0.00
2019-04-23T00:05:48.508Z,0.00
2019-04-23T00:06:59.339Z,0.00
2019-04-23T00:09:56.876Z,0.00
2019-04-23T00:10:53.684Z,0.00
2019-04-23T00:11:57.839Z,0.00
2019-04-23T00:12:49.563Z,0.00
2019-04-23T00:13:50.344Z,0.00
2019-04-23T00:14:57.749Z,0.00
2019-04-23T00:15:58.789Z,0.00
2019-04-23T00:16:51.205Z,0.00
2019-04-23T00:17:47.853Z,0.00
2019-04-23T00:18:47.488Z,0.00
2019-04-23T00:19:55.827Z,0.00
2019-04-23T00:20:47.840Z,0.00
2019-04-23T00:21:52.142Z,0.00
2019-04-23T00:22:51.739Z,0.00
2019-04-23T00:23:53.350Z,0.00
2019-04-23T00:25:53.693Z,0.00
2019-04-23T00:26:52.240Z,0.00
2019-04-23T00:27:55.228Z,0.00
2019-04-23T00:29:56.511Z,0.00
2019-04-23T00:30:55.370Z,0.00
2019-04-23T00:31:51.260Z,0.00
2019-04-23T00:32:46.631Z,0.00
2019-04-23T00:33:55.642Z,0.00
2019-04-23T00:34:54.615Z,0.00
2019-04-23T00:35:50.126Z,0.00
2019-04-23T00:36:51.712Z,0.00
2019-04-23T00:37:55.001Z,0.00
2019-04-23T00:39:01.346Z,0.00
2019-04-23T00:40:51.295Z,0.00
2019-04-23T00:41:53.168Z,0.00
2019-04-23T00:42:47.738Z,0.00
2019-04-23T00:43:54.844Z,0.00
2019-04-23T00:44:51.558Z,0.00
2019-04-23T00:45:48.876Z,0.00
2019-04-23T00:46:48.990Z,0.00
2019-04-23T00:47:51.378Z,0.00
2019-04-23T00:49:05.834Z,0.00
2019-04-23T00:49:59.983Z,0.00
2019-04-23T00:51:00.147Z,0.00
2019-04-23T00:51:54.812Z,0.00
2019-04-23T00:52:50.390Z,0.00
2019-04-23T00:53:51.441Z,0.00
2019-04-23T00:54:58.008Z,0.00
2019-04-23T00:56:55.402Z,0.00
2019-04-23T00:57:50.535Z,0.00
2019-04-23T00:58:51.069Z,0.00
2019-04-23T01:00:14.024Z,0.00
2019-04-23T01:01:57.917Z,0.00
2019-04-23T01:02:53.238Z,0.00
2019-04-23T01:03:55.162Z,0.00
2019-04-23T01:04:58.563Z,0.00
2019-04-23T01:05:50.416Z,0.00
2019-04-23T01:06:52.348Z,0.00
2019-04-23T01:07:56.421Z,0.00
2019-04-23T01:08:52.230Z,0.00
2019-04-23T01:09:55.182Z,0.00
2019-04-23T01:10:52.331Z,0.00
2019-04-23T01:11:49.657Z,0.00
2019-04-23T01:12:56.287Z,0.00
2019-04-23T01:13:49.158Z,0.00
2019-04-23T01:14:48.257Z,0.00
2019-04-23T01:15:56.275Z,0.00
2019-04-23T01:16:42.733Z,0.00
2019-04-23T01:17:54.101Z,0.00
2019-04-23T01:18:51.503Z,0.00
2019-04-23T01:19:49.887Z,0.00
2019-04-23T01:20:50.204Z,0.00
2019-04-23T01:21:28.494Z,0.00
2019-04-23T01:22:27.479Z,0.00
2019-04-23T01:23:33.735Z,0.00
2019-04-23T01:24:31.304Z,0.00
2019-04-23T01:25:35.081Z,0.00
2019-04-23T01:26:50.321Z,0.00
2019-04-23T01:28:57.400Z,0.00
2019-04-23T01:29:58.519Z,0.00
2019-04-23T01:30:57.012Z,0.00
2019-04-23T01:31:53.281Z,0.00
2019-04-23T01:33:12.254Z,0.00
2019-04-23T01:33:51.757Z,0.00
2019-04-23T01:34:56.233Z,0.00
2019-04-23T01:36:54.510Z,0.00
2019-04-23T01:37:55.771Z,0.00
2019-04-23T01:38:55.960Z,0.00
2019-04-23T01:40:00.652Z,0.00
2019-04-23T01:41:07.788Z,0.00
2019-04-23T01:41:57.473Z,0.00
2019-04-23T01:42:56.551Z,0.00
2019-04-23T01:43:51.706Z,0.00
2019-04-23T01:45:00.211Z,0.00
2019-04-23T01:45:49.136Z,0.00
2019-04-23T01:46:54.274Z,0.00
2019-04-23T01:47:54.746Z,0.00
2019-04-23T01:48:52.231Z,0.00
2019-04-23T01:50:01.579Z,0.00
2019-04-23T01:50:54.286Z,0.00
2019-04-23T01:51:54.930Z,0.00
2019-04-23T01:53:49.759Z,0.00
2019-04-23T01:54:52.000Z,0.00
2019-04-23T01:55:51.060Z,0.00
2019-04-23T01:56:56.613Z,0.00
2019-04-23T01:58:05.824Z,0.00
2019-04-23T01:59:55.130Z,0.00
2019-04-23T02:00:54.505Z,0.00
2019-04-23T02:02:57.610Z,0.00
2019-04-23T02:03:58.284Z,0.00
2019-04-23T02:05:01.108Z,0.00
2019-04-23T02:05:55.708Z,0.00
2019-04-23T02:06:53.400Z,0.00
2019-04-23T02:07:56.891Z,0.00
2019-04-23T02:08:53.151Z,0.00
2019-04-23T02:10:02.324Z,0.00
2019-04-23T02:10:56.201Z,0.00
2019-04-23T02:12:55.758Z,0.00
2019-04-23T02:13:56.349Z,0.00
2019-04-23T02:14:59.413Z,0.00
2019-04-23T02:15:51.586Z,0.00
2019-04-23T02:16:56.296Z,0.00
2019-04-23T02:18:01.461Z,0.00
2019-04-23T02:18:59.739Z,0.00
2019-04-23T02:20:04.229Z,0.00
2019-04-23T02:20:52.609Z,0.00
2019-04-23T02:22:01.373Z,0.00
2019-04-23T02:24:10.916Z,0.00
2019-04-23T02:24:54.579Z,0.00
2019-04-23T02:26:50.894Z,0.00
2019-04-23T02:28:03.180Z,0.00
2019-04-23T02:30:05.735Z,0.00
2019-04-23T02:34:17.116Z,0.00
2019-04-23T02:36:08.227Z,0.00
2019-04-23T02:41:04.398Z,0.00
2019-04-23T02:42:13.068Z,0.00
2019-04-23T02:44:09.064Z,0.00
2019-04-23T02:46:02.302Z,0.00
2019-04-23T02:48:19.869Z,0.00
2019-04-23T02:50:11.584Z,0.00
2019-04-23T02:51:58.904Z,0.00
2019-04-23T02:53:11.685Z,0.00
2019-04-23T02:55:03.797Z,0.00
2019-04-23T02:56:07.681Z,0.00
2019-04-23T02:58:00.771Z,0.00
2019-04-23T02:59:05.607Z,0.00
2019-04-23T03:01:15.264Z,0.00
2019-04-23T03:02:15.490Z,0.00
2019-04-23T03:03:13.579Z,0.00
2019-04-23T03:04:08.429Z,0.00
2019-04-23T03:04:57.769Z,0.00
2019-04-23T03:07:01.223Z,0.00
2019-04-23T03:08:00.041Z,0.00
2019-04-23T03:08:49.229Z,0.00
2019-04-23T03:10:00.558Z,0.00
2019-04-23T03:15:09.275Z,0.00
2019-04-23T03:16:12.890Z,0.00
2019-04-23T03:16:56.603Z,0.00
2019-04-23T03:18:11.820Z,0.00
2019-04-23T03:21:24.066Z,0.00
2019-04-23T03:22:09.668Z,0.00
2019-04-23T03:23:10.382Z,0.00
2019-04-23T03:24:28.465Z,0.00
2019-04-23T03:26:01.952Z,0.00
2019-04-23T03:27:56.089Z,0.00
2019-04-23T03:29:05.703Z,0.00
2019-04-23T03:32:34.193Z,0.00
2019-04-23T03:34:19.627Z,0.00
2019-04-23T03:38:10.517Z,0.00
2019-04-23T03:38:54.367Z,0.00
2019-04-23T03:40:03.935Z,0.00
2019-04-23T03:41:07.081Z,0.00
2019-04-23T03:43:10.466Z,4.00
2019-04-23T03:43:56.295Z,4.00
2019-04-23T03:45:07.507Z,4.00
2019-04-23T03:47:04.071Z,0.00
2019-04-23T03:48:06.005Z,4.00
2019-04-23T03:49:15.246Z,4.00
2019-04-23T03:50:56.313Z,4.00
2019-04-23T03:52:01.327Z,4.00
2019-04-23T03:52:55.240Z,8.00
2019-04-23T03:54:48.678Z,4.00
2019-04-23T03:57:13.347Z,8.00
2019-04-23T04:00:02.378Z,8.00
2019-04-23T04:01:07.199Z,8.00
2019-04-23T04:02:10.582Z,12.00
2019-04-23T04:05:04.050Z,12.00
2019-04-23T04:07:15.151Z,12.00
2019-04-23T04:09:14.904Z,16.00
2019-04-23T04:09:51.852Z,12.00
2019-04-23T04:12:01.703Z,20.00
2019-04-23T04:12:56.744Z,16.00
2019-04-23T04:16:11.797Z,24.00
2019-04-23T04:17:07.902Z,20.00
2019-04-23T04:18:11.037Z,24.00
2019-04-23T04:21:11.757Z,24.00
2019-04-23T04:23:09.379Z,28.00
2019-04-23T04:24:13.177Z,24.00
2019-04-23T04:25:02.084Z,28.00
2019-04-23T04:26:00.865Z,28.00
2019-04-23T04:27:06.085Z,32.00
2019-04-23T04:29:04.041Z,32.00
2019-04-23T04:32:03.839Z,32.00
2019-04-23T04:34:10.649Z,36.00
2019-04-23T04:37:28.102Z,36.00
2019-04-23T04:38:07.893Z,40.00
2019-04-23T04:39:05.319Z,40.00
2019-04-23T04:40:07.176Z,36.00
2019-04-23T04:41:03.382Z,40.00
2019-04-23T04:42:01.930Z,40.00
2019-04-23T04:43:09.100Z,44.00
2019-04-23T04:44:36.466Z,44.00
2019-04-23T04:45:09.655Z,40.00
2019-04-23T04:47:49.482Z,44.00
2019-04-23T04:49:01.501Z,48.00
2019-04-23T04:53:26.801Z,48.00
2019-04-23T04:54:55.950Z,48.00
2019-04-23T04:56:05.020Z,48.00
2019-04-23T04:58:12.719Z,52.00
2019-04-23T05:01:10.014Z,52.00
2019-04-23T05:02:11.765Z,56.00
2019-04-23T05:03:12.718Z,56.00
2019-04-23T05:03:45.998Z,56.00
2019-04-23T05:05:08.725Z,56.00
2019-04-23T05:08:13.917Z,60.00
2019-04-23T05:09:06.777Z,60.00
2019-04-23T05:10:20.872Z,56.00
2019-04-23T05:11:04.777Z,60.00
2019-04-23T05:12:01.524Z,60.00
2019-04-23T05:13:12.012Z,60.00
2019-04-23T05:16:04.326Z,60.00
2019-04-23T05:16:58.671Z,64.00
2019-04-23T05:18:14.064Z,64.00
2019-04-23T05:19:08.565Z,64.00
2019-04-23T05:20:58.594Z,64.00
2019-04-23T05:22:00.618Z,68.00
2019-04-23T05:23:57.342Z,68.00
2019-04-23T05:25:09.437Z,68.00
2019-04-23T05:25:51.485Z,72.00
2019-04-23T05:26:48.078Z,68.00
2019-04-23T05:28:03.767Z,68.00
2019-04-23T05:29:58.301Z,72.00
2019-04-23T05:31:02.317Z,72.00
2019-04-23T05:31:46.981Z,72.00
2019-04-23T05:32:56.090Z,76.00
2019-04-23T05:34:56.235Z,72.00
2019-04-23T05:37:06.827Z,76.00
2019-04-23T05:40:15.630Z,76.00
2019-04-23T05:40:55.246Z,80.00
2019-04-23T05:42:08.150Z,80.00
2019-04-23T05:42:52.180Z,76.00
2019-04-23T05:43:55.375Z,80.00
2019-04-23T05:46:14.312Z,80.00
2019-04-23T05:48:05.506Z,80.00
2019-04-23T05:48:52.832Z,80.00
2019-04-23T05:49:54.655Z,84.00
2019-04-23T05:51:00.817Z,84.00
2019-04-23T05:51:55.791Z,84.00
2019-04-23T05:52:53.099Z,84.00
2019-04-23T05:53:53.539Z,84.00
2019-04-23T05:54:57.581Z,84.00
2019-04-23T05:55:55.465Z,84.00
2019-04-23T05:56:53.910Z,88.00
2019-04-23T05:57:52.097Z,88.00
2019-04-23T05:58:52.175Z,84.00
2019-04-23T06:00:54.468Z,88.00
2019-04-23T06:01:57.253Z,88.00
2019-04-23T06:02:58.912Z,96.00
2019-04-23T06:03:58.201Z,88.00
2019-04-23T06:04:53.209Z,88.00
2019-04-23T06:05:54.075Z,88.00
2019-04-23T06:08:53.475Z,88.00
2019-04-23T06:09:48.164Z,92.00
2019-04-23T06:10:58.671Z,92.00
2019-04-23T06:12:50.928Z,92.00
2019-04-23T06:14:02.133Z,96.00
2019-04-23T06:14:52.526Z,92.00
2019-04-23T06:15:50.598Z,92.00
2019-04-23T06:17:54.185Z,96.00
2019-04-23T06:18:57.251Z,96.00
2019-04-23T06:19:57.733Z,96.00
2019-04-23T06:20:55.558Z,96.00
2019-04-23T06:21:58.522Z,96.00
2019-04-23T06:23:51.783Z,96.00
2019-04-23T06:26:19.709Z,100.00
2019-04-23T06:26:57.457Z,96.00
2019-04-23T06:27:54.929Z,96.00
2019-04-23T06:28:50.745Z,100.00
2019-04-23T06:29:51.088Z,100.00
2019-04-23T06:30:54.430Z,100.00
2019-04-23T06:31:54.054Z,100.00
2019-04-23T06:32:51.565Z,100.00
2019-04-23T06:33:54.341Z,100.00
2019-04-23T06:35:54.848Z,104.00
2019-04-23T06:36:51.319Z,104.00
2019-04-23T06:39:48.426Z,104.00
2019-04-23T06:40:54.312Z,108.00
2019-04-23T06:42:54.798Z,104.00
2019-04-23T06:44:00.502Z,104.00
2019-04-23T06:44:55.302Z,108.00
2019-04-23T06:45:49.532Z,108.00
2019-04-23T06:47:56.012Z,108.00
2019-04-23T06:48:47.054Z,108.00
2019-04-23T06:49:53.026Z,108.00
2019-04-23T06:50:59.243Z,112.00
2019-04-23T06:52:02.698Z,112.00
2019-04-23T06:52:47.172Z,108.00
2019-04-23T06:53:51.265Z,108.00
2019-04-23T06:54:56.018Z,112.00
2019-04-23T06:57:02.266Z,112.00
2019-04-23T06:57:50.018Z,112.00
2019-04-23T06:58:57.288Z,112.00
2019-04-23T06:59:48.596Z,116.00
2019-04-23T07:00:55.866Z,112.00
2019-04-23T07:02:01.071Z,116.00
2019-04-23T07:02:57.024Z,116.00
2019-04-23T07:03:51.313Z,116.00
2019-04-23T07:05:02.168Z,116.00
2019-04-23T07:06:05.375Z,120.00
2019-04-23T07:07:50.046Z,116.00
2019-04-23T07:09:52.034Z,120.00
2019-04-23T07:10:55.520Z,120.00
2019-04-23T07:11:48.188Z,120.00
2019-04-23T07:12:56.231Z,124.00
2019-04-23T07:13:57.649Z,124.00
2019-04-23T07:15:01.116Z,124.00
2019-04-23T07:15:53.377Z,124.00
2019-04-23T07:17:03.331Z,124.00
2019-04-23T07:17:51.178Z,128.00
2019-04-23T07:19:53.513Z,128.00
2019-04-23T07:20:50.601Z,128.00
2019-04-23T07:21:51.388Z,132.00
2019-04-23T07:22:56.807Z,128.00
2019-04-23T07:25:55.897Z,128.00
2019-04-23T07:26:45.019Z,132.00
2019-04-23T07:27:51.087Z,132.00
2019-04-23T07:28:59.227Z,132.00
2019-04-23T07:29:58.528Z,136.00
2019-04-23T07:30:50.038Z,136.00
2019-04-23T07:31:53.982Z,136.00
2019-04-23T07:32:52.005Z,140.00
2019-04-23T07:34:55.736Z,144.00
2019-04-23T07:35:51.700Z,140.00
2019-04-23T07:36:52.693Z,144.00
2019-04-23T07:37:57.088Z,144.00
2019-04-23T07:39:01.493Z,144.00
2019-04-23T07:40:06.168Z,148.00
2019-04-23T07:40:51.354Z,148.00
2019-04-23T07:42:01.621Z,148.00
2019-04-23T07:42:51.185Z,148.00
2019-04-23T07:44:02.715Z,148.00
2019-04-23T07:45:55.185Z,152.00
2019-04-23T07:47:07.366Z,156.00
2019-04-23T07:47:54.124Z,156.00
2019-04-23T07:48:52.114Z,156.00
2019-04-23T07:50:03.793Z,156.00
2019-04-23T07:50:48.006Z,160.00
2019-04-23T07:51:55.130Z,164.00
2019-04-23T07:52:59.041Z,160.00
2019-04-23T07:53:57.650Z,164.00
2019-04-23T07:54:58.603Z,160.00
2019-04-23T07:56:53.961Z,168.00
2019-04-23T07:58:01.975Z,164.00
2019-04-23T07:58:44.821Z,164.00
2019-04-23T07:59:56.910Z,168.00
2019-04-23T08:01:52.359Z,168.00
2019-04-23T08:03:01.555Z,168.00
2019-04-23T08:03:48.255Z,172.00
2019-04-23T08:05:42.643Z,172.00
2019-04-23T08:06:54.171Z,176.00
2019-04-23T08:07:50.996Z,176.00
2019-04-23T08:08:48.746Z,176.00
2019-04-23T08:09:53.273Z,180.00
2019-04-23T08:11:01.597Z,180.00
2019-04-23T08:11:45.764Z,180.00
2019-04-23T08:12:53.890Z,176.00
2019-04-23T08:14:55.133Z,180.00
2019-04-23T08:15:46.740Z,184.00
2019-04-23T08:16:42.431Z,180.00
2019-04-23T08:17:53.042Z,180.00
2019-04-23T08:19:54.413Z,180.00
2019-04-23T08:20:54.100Z,180.00
2019-04-23T08:22:01.514Z,180.00
2019-04-23T08:22:57.106Z,180.00
2019-04-23T08:23:55.490Z,180.00
2019-04-23T08:25:01.193Z,184.00
2019-04-23T08:26:02.475Z,184.00
2019-04-23T08:26:55.324Z,184.00
2019-04-23T08:27:49.717Z,184.00
2019-04-23T08:29:01.113Z,184.00
2019-04-23T08:29:55.800Z,188.00
2019-04-23T08:30:57.221Z,188.00
2019-04-23T08:31:50.355Z,192.00
2019-04-23T08:32:55.399Z,188.00
2019-04-23T08:33:57.450Z,188.00
2019-04-23T08:34:56.300Z,192.00
2019-04-23T08:35:51.222Z,192.00
2019-04-23T08:38:51.176Z,192.00
2019-04-23T08:39:47.139Z,196.00
2019-04-23T08:41:02.524Z,192.00
2019-04-23T08:43:57.322Z,200.00
2019-04-23T08:45:01.756Z,200.00
2019-04-23T08:45:50.041Z,196.00
2019-04-23T08:46:57.303Z,200.00
2019-04-23T08:47:59.205Z,200.00
2019-04-23T08:49:49.039Z,204.00
2019-04-23T08:52:56.138Z,208.00
2019-04-23T08:53:51.607Z,208.00
2019-04-23T08:54:52.329Z,208.00
2019-04-23T08:56:03.646Z,208.00
2019-04-23T08:56:57.152Z,208.00
2019-04-23T08:57:43.144Z,212.00
2019-04-23T08:58:49.308Z,212.00
2019-04-23T09:00:55.338Z,216.00
2019-04-23T09:02:07.777Z,212.00
2019-04-23T09:02:53.290Z,216.00
2019-04-23T09:03:49.332Z,216.00
2019-04-23T09:04:54.146Z,220.00
2019-04-23T09:05:55.903Z,220.00
2019-04-23T09:06:55.945Z,224.00
2019-04-23T09:09:04.388Z,228.00
2019-04-23T09:09:58.981Z,224.00
2019-04-23T09:10:56.705Z,228.00
2019-04-23T09:11:54.225Z,228.00
2019-04-23T09:12:53.804Z,232.00
2019-04-23T09:14:52.351Z,236.00
2019-04-23T09:15:50.974Z,236.00
2019-04-23T09:16:50.975Z,240.00
2019-04-23T09:18:47.299Z,240.00
2019-04-23T09:20:07.117Z,240.00
2019-04-23T09:20:42.752Z,244.00
2019-04-23T09:21:55.257Z,248.00
2019-04-23T09:22:42.199Z,248.00
2019-04-23T09:24:55.742Z,252.00
2019-04-23T09:26:51.655Z,256.00
2019-04-23T09:27:45.315Z,256.00
2019-04-23T09:28:51.684Z,260.00
2019-04-23T09:32:42.224Z,268.00
2019-04-23T09:35:48.419Z,272.00
2019-04-23T09:36:47.507Z,276.00
2019-04-23T09:38:55.985Z,280.00
2019-04-23T09:39:51.219Z,284.00
2019-04-23T09:41:04.559Z,284.00
2019-04-23T09:41:42.115Z,288.00
2019-04-23T09:43:08.581Z,292.00
2019-04-23T09:43:57.735Z,296.00
2019-04-23T09:45:51.036Z,304.00
2019-04-23T09:46:52.948Z,312.00
2019-04-23T09:48:01.434Z,316.00
2019-04-23T09:49:46.747Z,324.00
2019-04-23T09:50:57.005Z,336.00
2019-04-23T09:51:57.812Z,336.00
2019-04-23T09:53:01.418Z,348.00
2019-04-23T09:53:56.178Z,352.00
2019-04-23T09:54:57.769Z,356.00
2019-04-23T09:55:41.665Z,360.00
2019-04-23T09:56:50.945Z,364.00
2019-04-23T09:58:00.607Z,368.00
2019-04-23T09:58:51.833Z,372.00
2019-04-23T09:59:48.945Z,380.00
2019-04-23T10:00:45.024Z,380.00
2019-04-23T10:01:40.956Z,384.00
2019-04-23T10:02:41.253Z,388.00
2019-04-23T10:03:38.970Z,388.00
2019-04-23T10:04:41.126Z,396.00
2019-04-23T10:05:35.325Z,396.00
2019-04-23T10:06:26.524Z,404.00
2019-04-23T10:07:34.966Z,408.00
2019-04-23T10:08:30.808Z,408.00
2019-04-23T10:09:24.174Z,408.00
2019-04-23T10:10:22.722Z,412.00
2019-04-23T10:11:22.215Z,420.00
2019-04-23T10:12:22.097Z,420.00
2019-04-23T10:13:21.973Z,424.00
2019-04-23T10:14:21.365Z,424.00
2019-04-23T10:15:28.342Z,432.00
2019-04-23T10:16:25.692Z,436.00
2019-04-23T10:17:24.227Z,436.00
2019-04-23T10:18:22.395Z,440.00
2019-04-23T10:19:22.566Z,444.00
2019-04-23T10:20:22.522Z,448.00
2019-04-23T10:21:21.516Z,448.00
2019-04-23T10:22:21.287Z,452.00
2019-04-23T10:23:21.342Z,456.00
2019-04-23T10:24:21.285Z,460.00
2019-04-23T10:25:22.654Z,464.00
2019-04-23T10:26:21.859Z,468.00
2019-04-23T10:27:21.219Z,468.00
2019-04-23T10:28:22.963Z,472.00
2019-04-23T10:29:21.232Z,480.00
2019-04-23T10:30:21.766Z,480.00
2019-04-23T10:31:22.753Z,484.00
2019-04-23T10:32:21.856Z,488.00
2019-04-23T10:33:21.350Z,488.00
2019-04-23T10:34:21.253Z,496.00
2019-04-23T10:35:32.773Z,500.00
2019-04-23T10:36:25.859Z,504.00
2019-04-23T10:37:34.576Z,508.00
2019-04-23T10:38:22.594Z,512.00
2019-04-23T10:39:25.818Z,512.00
2019-04-23T10:40:28.027Z,512.00
2019-04-23T10:41:23.119Z,524.00
2019-04-23T10:42:21.880Z,528.00
2019-04-23T10:43:22.571Z,524.00
2019-04-23T10:44:21.555Z,528.00
2019-04-23T10:45:34.901Z,536.00
2019-04-23T10:46:43.135Z,540.00
2019-04-23T10:47:56.904Z,548.00
2019-04-23T10:48:52.849Z,544.00
2019-04-23T10:49:53.205Z,548.00
2019-04-23T10:51:51.668Z,560.00
2019-04-23T10:52:57.014Z,568.00
2019-04-23T10:54:48.545Z,576.00
2019-04-23T10:57:45.915Z,580.00
2019-04-23T10:58:45.840Z,584.00
2019-04-23T11:00:53.486Z,596.00
2019-04-23T11:01:52.951Z,596.00
2019-04-23T11:02:48.893Z,604.00
2019-04-23T11:05:00.373Z,620.00
2019-04-23T11:06:00.511Z,624.00
2019-04-23T11:06:56.533Z,624.00
2019-04-23T11:07:51.393Z,624.00
2019-04-23T11:08:49.854Z,636.00
2019-04-23T11:10:50.408Z,652.00
2019-04-23T11:11:52.628Z,680.00
2019-04-23T11:13:02.477Z,688.00
2019-04-23T11:13:56.552Z,692.00
2019-04-23T11:18:57.176Z,608.00
2019-04-23T11:20:01.358Z,356.00
2019-04-23T11:21:59.625Z,692.00
2019-04-23T11:22:48.082Z,700.00
2019-04-23T11:23:49.833Z,696.00
2019-04-23T11:24:48.367Z,704.00
2019-04-23T11:25:45.848Z,704.00
2019-04-23T11:26:49.281Z,700.00
2019-04-23T11:27:52.442Z,712.00
2019-04-23T11:28:43.727Z,720.00
2019-04-23T11:29:57.461Z,728.00
2019-04-23T11:31:09.085Z,744.00
2019-04-23T11:31:54.271Z,724.00
2019-04-23T11:33:10.170Z,768.00
2019-04-23T11:36:19.423Z,736.00
2019-04-23T11:38:54.776Z,556.00
2019-04-23T11:39:52.192Z,796.00
2019-04-23T11:40:41.910Z,408.00
2019-04-23T11:43:46.492Z,360.00
2019-04-23T11:45:00.135Z,1120.00
2019-04-23T11:45:53.983Z,1260.00
2019-04-23T11:48:59.662Z,392.00
2019-04-23T11:51:31.656Z,1124.00
2019-04-23T11:52:08.399Z,408.00
2019-04-23T11:53:06.563Z,1248.00
2019-04-23T11:54:53.633Z,364.00
2019-04-23T11:57:27.179Z,556.00
2019-04-23T11:58:00.716Z,1264.00
2019-04-23T11:58:44.656Z,588.00
2019-04-23T12:00:09.163Z,1400.00
2019-04-23T12:01:53.312Z,1120.00
2019-04-23T12:02:51.145Z,1020.00
2019-04-23T12:03:56.478Z,1008.00
2019-04-23T12:05:02.312Z,1052.00
2019-04-23T12:05:52.368Z,1040.00
2019-04-23T12:06:54.091Z,972.00
2019-04-23T12:07:49.561Z,928.00
2019-04-23T12:11:10.352Z,816.00
2019-04-23T12:12:49.647Z,828.00
2019-04-23T12:13:55.689Z,372.00
2019-04-23T12:14:47.296Z,332.00
2019-04-23T12:16:57.304Z,292.00
2019-04-23T12:19:56.177Z,356.00
2019-04-23T12:20:45.734Z,348.00
2019-04-23T12:21:52.831Z,336.00
2019-04-23T12:23:01.188Z,520.00
2019-04-23T12:23:54.508Z,408.00
2019-04-23T12:26:11.638Z,524.00
2019-04-23T12:26:50.635Z,388.00
2019-04-23T12:27:38.665Z,728.00
2019-04-23T12:28:53.085Z,380.00
2019-04-23T12:29:52.375Z,320.00
2019-04-23T12:31:47.258Z,376.00
2019-04-23T12:33:08.602Z,336.00
2019-04-23T12:33:49.055Z,340.00
2019-04-23T12:35:04.313Z,352.00
2019-04-23T12:35:43.753Z,352.00
2019-04-23T12:36:45.568Z,368.00
2019-04-23T12:37:50.681Z,768.00
2019-04-23T12:38:49.242Z,344.00
2019-04-23T12:39:49.439Z,304.00
2019-04-23T12:40:45.134Z,320.00
2019-04-23T12:41:52.841Z,348.00
2019-04-23T12:43:50.546Z,376.00
2019-04-23T12:44:56.435Z,488.00
2019-04-23T12:45:43.646Z,324.00
2019-04-23T12:50:04.997Z,280.00
2019-04-23T12:51:57.532Z,252.00
2019-04-23T12:53:43.470Z,252.00
2019-04-23T12:55:02.851Z,260.00
2019-04-23T12:55:54.489Z,272.00
2019-04-23T12:56:57.354Z,268.00
2019-04-23T12:58:03.840Z,284.00
2019-04-23T12:58:41.522Z,272.00
2019-04-23T12:59:49.843Z,276.00
2019-04-23T13:00:44.408Z,292.00
2019-04-23T13:01:57.618Z,300.00
2019-04-23T13:03:46.011Z,308.00
2019-04-23T13:05:39.859Z,312.00
2019-04-23T13:06:56.287Z,320.00
2019-04-23T13:08:54.492Z,340.00
2019-04-23T13:09:53.975Z,312.00
2019-04-23T13:10:48.183Z,328.00
2019-04-23T13:11:52.860Z,320.00
2019-04-23T13:12:57.216Z,316.00
2019-04-23T13:14:56.074Z,592.00
2019-04-23T13:15:48.899Z,264.00
2019-04-23T13:16:58.688Z,260.00
2019-04-23T13:17:50.252Z,464.00
2019-04-23T13:18:50.033Z,316.00
2019-04-23T13:19:53.675Z,268.00
2019-04-23T13:20:46.819Z,272.00
2019-04-23T13:22:04.447Z,272.00
2019-04-23T13:23:45.852Z,280.00
2019-04-23T13:24:49.009Z,296.00
2019-04-23T13:25:55.858Z,320.00
2019-04-23T13:26:44.799Z,324.00
2019-04-23T13:27:57.143Z,324.00
2019-04-23T13:28:45.373Z,316.00
2019-04-23T13:29:50.808Z,328.00
2019-04-23T13:30:53.823Z,340.00
2019-04-23T13:31:44.681Z,336.00
2019-04-23T13:32:55.389Z,324.00
2019-04-23T13:33:47.119Z,328.00
2019-04-23T13:35:04.736Z,304.00
2019-04-23T13:37:11.212Z,224.00
2019-04-23T13:37:54.472Z,196.00
2019-04-23T13:39:44.295Z,172.00
2019-04-23T13:40:59.664Z,168.00
2019-04-23T13:41:47.859Z,188.00
2019-04-23T13:42:57.153Z,192.00
2019-04-23T13:43:45.744Z,192.00
2019-04-23T13:44:48.457Z,184.00
2019-04-23T13:46:56.126Z,152.00
2019-04-23T13:47:53.416Z,152.00
2019-04-23T13:48:42.360Z,152.00
2019-04-23T13:49:53.219Z,160.00
2019-04-23T13:51:46.719Z,156.00
2019-04-23T13:53:58.840Z,160.00
2019-04-23T13:55:45.575Z,160.00
2019-04-23T13:58:51.069Z,148.00
2019-04-23T13:59:51.821Z,136.00
2019-04-23T14:00:52.270Z,132.00
2019-04-23T14:01:46.648Z,124.00
2019-04-23T14:03:47.980Z,112.00
2019-04-23T14:04:56.095Z,108.00
2019-04-23T14:05:52.745Z,108.00
2019-04-23T14:06:53.897Z,112.00
2019-04-23T14:08:55.306Z,116.00
2019-04-23T14:10:00.562Z,124.00
2019-04-23T14:11:05.425Z,128.00
2019-04-23T14:11:38.887Z,136.00
2019-04-23T14:13:08.823Z,148.00
2019-04-23T14:15:04.895Z,156.00
2019-04-23T14:15:58.997Z,168.00
2019-04-23T14:16:48.741Z,164.00
2019-04-23T14:18:55.955Z,164.00
2019-04-23T14:19:49.542Z,156.00
2019-04-23T14:20:53.591Z,156.00
2019-04-23T14:21:44.469Z,148.00
2019-04-23T14:22:59.997Z,132.00
2019-04-23T14:24:03.353Z,112.00
2019-04-23T14:25:02.715Z,100.00
2019-04-23T14:26:04.923Z,96.00
2019-04-23T14:27:10.897Z,100.00
2019-04-23T14:27:57.767Z,96.00
2019-04-23T14:28:44.659Z,96.00
2019-04-23T14:29:55.686Z,100.00
2019-04-23T14:30:53.890Z,96.00
2019-04-23T14:31:57.196Z,96.00
2019-04-23T14:32:55.842Z,96.00
2019-04-23T14:34:54.123Z,96.00
2019-04-23T14:35:46.177Z,96.00
2019-04-23T14:36:55.552Z,96.00
2019-04-23T14:38:02.385Z,100.00
2019-04-23T14:38:49.204Z,100.00
2019-04-23T14:39:47.784Z,100.00
2019-04-23T14:40:58.930Z,104.00
2019-04-23T14:41:56.688Z,104.00
2019-04-23T14:42:58.361Z,104.00
2019-04-23T14:43:58.003Z,108.00
2019-04-23T14:44:53.134Z,108.00
2019-04-23T14:46:13.683Z,104.00
2019-04-23T14:46:55.099Z,100.00
2019-04-23T14:49:59.321Z,84.00
2019-04-23T14:51:13.394Z,80.00
2019-04-23T14:52:57.022Z,72.00
2019-04-23T14:53:43.959Z,72.00
2019-04-23T14:55:27.999Z,68.00
2019-04-23T14:55:58.144Z,68.00
2019-04-23T14:56:51.525Z,64.00
2019-04-23T14:58:06.406Z,64.00
2019-04-23T14:59:46.874Z,68.00
2019-04-23T15:00:53.846Z,64.00
2019-04-23T15:01:49.018Z,60.00
2019-04-23T15:02:57.205Z,52.00
2019-04-23T15:03:46.530Z,48.00
2019-04-23T15:04:49.079Z,44.00
2019-04-23T15:06:00.888Z,44.00
2019-04-23T15:06:50.820Z,36.00
2019-04-23T15:08:04.125Z,36.00
2019-04-23T15:09:54.958Z,36.00
2019-04-23T15:11:06.595Z,36.00
2019-04-23T15:11:56.540Z,36.00
2019-04-23T15:14:51.213Z,36.00
2019-04-23T15:15:53.462Z,36.00
2019-04-23T15:17:53.586Z,36.00
2019-04-23T15:19:48.178Z,36.00
2019-04-23T15:20:55.899Z,32.00
2019-04-23T15:22:00.118Z,32.00
2019-04-23T15:23:05.177Z,32.00
2019-04-23T15:24:06.955Z,32.00
2019-04-23T15:24:49.947Z,32.00
2019-04-23T15:26:14.580Z,32.00
2019-04-23T15:28:06.058Z,32.00
2019-04-23T15:28:29.080Z,32.00
2019-04-23T15:29:31.902Z,32.00
2019-04-23T15:30:52.052Z,28.00
2019-04-23T15:31:52.458Z,28.00
2019-04-23T15:32:56.655Z,28.00
2019-04-23T15:33:55.408Z,32.00
2019-04-23T15:34:47.001Z,28.00
2019-04-23T15:38:14.231Z,28.00
2019-04-23T15:38:53.856Z,24.00
2019-04-23T15:39:58.900Z,24.00
2019-04-23T15:40:53.987Z,28.00
2019-04-23T15:42:58.111Z,24.00
2019-04-23T15:43:52.245Z,24.00
2019-04-23T15:44:49.050Z,24.00
2019-04-23T15:45:55.512Z,20.00
2019-04-23T15:46:56.598Z,20.00
2019-04-23T15:47:49.317Z,20.00
2019-04-23T15:48:57.598Z,20.00
2019-04-23T15:49:51.491Z,20.00
2019-04-23T15:52:51.477Z,20.00
2019-04-23T15:53:53.180Z,20.00
2019-04-23T15:54:51.480Z,24.00
2019-04-23T15:55:49.318Z,20.00
2019-04-23T15:56:52.329Z,24.00
2019-04-23T15:58:01.558Z,24.00
2019-04-23T15:59:18.530Z,24.00
2019-04-23T15:59:48.323Z,28.00
2019-04-23T16:00:46.923Z,24.00
2019-04-23T16:01:40.579Z,24.00
2019-04-23T16:02:19.203Z,28.00
2019-04-23T16:03:19.930Z,24.00
2019-04-23T16:04:19.827Z,24.00
2019-04-23T16:05:20.217Z,24.00
2019-04-23T16:06:22.173Z,20.00
2019-04-23T16:07:34.003Z,20.00
2019-04-23T16:09:03.397Z,20.00
2019-04-23T16:09:49.573Z,24.00
2019-04-23T16:11:47.868Z,24.00
2019-04-23T16:12:53.190Z,24.00
2019-04-23T16:14:04.898Z,24.00
2019-04-23T16:14:48.014Z,20.00
2019-04-23T16:15:50.424Z,24.00